sensor_id;sensor_type;location;lat;lon;timestamp;pressure;altitude;pressure_sealevel;temperature;humidity
3668;BME280;24099;47.102;15.440;2023-01-29T00:02:10;97905.00;;;-0.07;100.00
3668;BME280;24099;47.102;15.440;2023-01-29T00:04:39;97909.31;;;-0.20;100.00
3668;BME280;24099;47.102;15.440;2023-01-29T00:07:07;97908.84;;;-0.27;100.00
3668;BME280;24099;47.102;15.440;2023-01-29T00:09:35;97908.81;;;-0.13;100.00
3668;BME280;24099;47.102;15.440;2023-01-29T00:12:03;97912.19;;;-0.25;100.00
3668;BME280;24099;47.102;15.440;2023-01-29T00:14:31;97912.97;;;-0.10;100.00
3668;BME280;24099;47.102;15.440;2023-01-29T00:16:58;97913.97;;;-0.13;100.00
3668;BME280;24099;47.102;15.440;2023-01-29T00:19:26;97915.53;;;-0.10;100.00
3668;BME280;24099;47.102;15.440;2023-01-29T00:21:56;97916.50;;;0.02;100.00
3668;BME280;24099;47.102;15.440;2023-01-29T00:24:24;97917.78;;;-0.18;100.00
3668;BME280;24099;47.102;15.440;2023-01-29T00:26:51;97913.47;;;-0.32;100.00
3668;BME280;24099;47.102;15.440;2023-01-29T00:29:19;97915.69;;;0.01;100.00
3668;BME280;24099;47.102;15.440;2023-01-29T00:31:47;97908.66;;;0.03;100.00
3668;BME280;24099;47.102;15.440;2023-01-29T00:34:16;97917.25;;;-0.23;100.00
3668;BME280;24099;47.102;15.440;2023-01-29T00:36:46;97912.84;;;-0.36;100.00
3668;BME280;24099;47.102;15.440;2023-01-29T00:39:16;97913.09;;;-0.26;100.00
3668;BME280;24099;47.102;15.440;2023-01-29T00:41:50;97920.00;;;-0.12;100.00
3668;BME280;24099;47.102;15.440;2023-01-29T00:44:35;97923.03;;;-0.20;100.00
3668;BME280;24099;47.102;15.440;2023-01-29T00:47:24;97917.28;;;-0.38;100.00
3668;BME280;24099;47.102;15.440;2023-01-29T00:50:00;97917.34;;;-0.25;100.00
3668;BME280;24099;47.102;15.440;2023-01-29T00:52:32;97925.53;;;-0.18;100.00
3668;BME280;24099;47.102;15.440;2023-01-29T00:55:04;97921.28;;;-0.19;100.00
3668;BME280;24099;47.102;15.440;2023-01-29T00:57:33;97924.31;;;-0.13;100.00
3668;BME280;24099;47.102;15.440;2023-01-29T01:00:02;97919.16;;;-0.13;100.00
3668;BME280;24099;47.102;15.440;2023-01-29T01:02:32;97916.28;;;-0.08;100.00
3668;BME280;24099;47.102;15.440;2023-01-29T01:05:18;97920.28;;;-0.17;100.00
3668;BME280;24099;47.102;15.440;2023-01-29T01:07:47;97925.03;;;-0.38;100.00
3668;BME280;24099;47.102;15.440;2023-01-29T01:10:19;97922.34;;;-0.36;100.00
3668;BME280;24099;47.102;15.440;2023-01-29T01:12:47;97921.50;;;-0.22;100.00
3668;BME280;24099;47.102;15.440;2023-01-29T01:15:16;97918.72;;;-0.19;100.00
3668;BME280;24099;47.102;15.440;2023-01-29T01:17:44;97914.38;;;-0.19;100.00
3668;BME280;24099;47.102;15.440;2023-01-29T01:20:12;97913.84;;;-0.38;100.00
3668;BME280;24099;47.102;15.440;2023-01-29T01:22:40;97921.66;;;-0.52;100.00
3668;BME280;24099;47.102;15.440;2023-01-29T01:25:09;97922.34;;;-0.36;100.00
3668;BME280;24099;47.102;15.440;2023-01-29T01:27:39;97925.84;;;-0.23;100.00
3668;BME280;24099;47.102;15.440;2023-01-29T01:30:09;97932.59;;;-0.20;100.00
3668;BME280;24099;47.102;15.440;2023-01-29T01:32:38;97926.59;;;-0.21;100.00
3668;BME280;24099;47.102;15.440;2023-01-29T01:35:07;97922.63;;;-0.26;100.00
3668;BME280;24099;47.102;15.440;2023-01-29T01:37:39;97934.34;;;-0.21;100.00
3668;BME280;24099;47.102;15.440;2023-01-29T01:40:10;97941.78;;;-0.43;100.00
3668;BME280;24099;47.102;15.440;2023-01-29T01:42:46;97938.47;;;-0.45;100.00
3668;BME280;24099;47.102;15.440;2023-01-29T01:45:19;97940.53;;;-0.38;100.00
3668;BME280;24099;47.102;15.440;2023-01-29T01:47:51;97941.84;;;-0.30;100.00
3668;BME280;24099;47.102;15.440;2023-01-29T01:50:23;97947.47;;;-0.24;100.00
3668;BME280;24099;47.102;15.440;2023-01-29T01:52:59;97944.59;;;-0.33;100.00
3668;BME280;24099;47.102;15.440;2023-01-29T01:55:30;97945.19;;;-0.43;100.00
3668;BME280;24099;47.102;15.440;2023-01-29T01:58:04;97940.81;;;-0.28;100.00
3668;BME280;24099;47.102;15.440;2023-01-29T02:00:33;97938.97;;;-0.26;100.00
3668;BME280;24099;47.102;15.440;2023-01-29T02:03:04;97934.72;;;-0.27;100.00
3668;BME280;24099;47.102;15.440;2023-01-29T02:05:53;97945.38;;;-0.60;100.00
3668;BME280;24099;47.102;15.440;2023-01-29T02:08:49;97944.63;;;-0.48;100.00
3668;BME280;24099;47.102;15.440;2023-01-29T02:11:36;97947.69;;;-0.55;100.00
3668;BME280;24099;47.102;15.440;2023-01-29T02:14:06;97945.81;;;-0.39;100.00
3668;BME280;24099;47.102;15.440;2023-01-29T02:16:34;97964.31;;;-0.45;100.00
3668;BME280;24099;47.102;15.440;2023-01-29T02:19:04;97962.94;;;-0.51;100.00
3668;BME280;24099;47.102;15.440;2023-01-29T02:21:59;97965.56;;;-0.38;100.00
3668;BME280;24099;47.102;15.440;2023-01-29T02:24:52;97966.91;;;-0.45;100.00
3668;BME280;24099;47.102;15.440;2023-01-29T02:27:29;97964.50;;;-0.62;100.00
3668;BME280;24099;47.102;15.440;2023-01-29T02:30:07;97970.22;;;-0.57;100.00
3668;BME280;24099;47.102;15.440;2023-01-29T02:32:40;97969.47;;;-0.45;100.00
3668;BME280;24099;47.102;15.440;2023-01-29T02:35:24;97969.19;;;-0.26;100.00
3668;BME280;24099;47.102;15.440;2023-01-29T02:38:08;97967.97;;;-0.35;100.00
3668;BME280;24099;47.102;15.440;2023-01-29T02:40:49;97979.44;;;-0.39;100.00
3668;BME280;24099;47.102;15.440;2023-01-29T02:43:26;97980.38;;;-0.54;100.00
3668;BME280;24099;47.102;15.440;2023-01-29T02:46:04;97982.41;;;-0.45;100.00
3668;BME280;24099;47.102;15.440;2023-01-29T02:48:40;97980.56;;;-0.43;100.00
3668;BME280;24099;47.102;15.440;2023-01-29T02:51:18;97977.44;;;-0.62;100.00
3668;BME280;24099;47.102;15.440;2023-01-29T02:53:56;97977.63;;;-0.65;100.00
3668;BME280;24099;47.102;15.440;2023-01-29T02:56:26;97986.19;;;-0.65;100.00
3668;BME280;24099;47.102;15.440;2023-01-29T02:59:00;97985.72;;;-0.57;100.00
3668;BME280;24099;47.102;15.440;2023-01-29T03:01:36;97985.53;;;-0.54;100.00
3668;BME280;24099;47.102;15.440;2023-01-29T03:04:10;97989.06;;;-0.55;100.00
3668;BME280;24099;47.102;15.440;2023-01-29T03:06:42;97985.19;;;-0.62;100.00
3668;BME280;24099;47.102;15.440;2023-01-29T03:09:17;97976.50;;;-0.61;100.00
3668;BME280;24099;47.102;15.440;2023-01-29T03:11:51;97980.19;;;-0.51;100.00
3668;BME280;24099;47.102;15.440;2023-01-29T03:14:23;97980.28;;;-0.53;100.00
3668;BME280;24099;47.102;15.440;2023-01-29T03:17:18;97985.19;;;-0.62;100.00
3668;BME280;24099;47.102;15.440;2023-01-29T03:19:47;97984.81;;;-0.71;100.00
3668;BME280;24099;47.102;15.440;2023-01-29T03:22:23;97985.09;;;-0.61;100.00
3668;BME280;24099;47.102;15.440;2023-01-29T03:24:56;97986.47;;;-0.55;100.00
3668;BME280;24099;47.102;15.440;2023-01-29T03:27:48;97982.97;;;-0.54;100.00
3668;BME280;24099;47.102;15.440;2023-01-29T03:30:43;97991.53;;;-0.54;100.00
3668;BME280;24099;47.102;15.440;2023-01-29T03:33:44;97994.97;;;-0.53;100.00
3668;BME280;24099;47.102;15.440;2023-01-29T03:36:13;97982.31;;;-0.58;100.00
3668;BME280;24099;47.102;15.440;2023-01-29T03:38:45;97986.28;;;-0.66;100.00
3668;BME280;24099;47.102;15.440;2023-01-29T03:41:19;97985.19;;;-0.62;100.00
3668;BME280;24099;47.102;15.440;2023-01-29T03:43:54;97989.41;;;-0.90;100.00
3668;BME280;24099;47.102;15.440;2023-01-29T03:46:33;97988.47;;;-1.03;100.00
3668;BME280;24099;47.102;15.440;2023-01-29T03:49:14;97994.56;;;-1.04;100.00
3668;BME280;24099;47.102;15.440;2023-01-29T03:51:52;97996.59;;;-0.95;100.00
3668;BME280;24099;47.102;15.440;2023-01-29T03:54:27;97992.34;;;-0.96;100.00
3668;BME280;24099;47.102;15.440;2023-01-29T03:57:01;98000.22;;;-0.83;100.00
3668;BME280;24099;47.102;15.440;2023-01-29T03:59:37;97990.06;;;-1.00;100.00
3668;BME280;24099;47.102;15.440;2023-01-29T04:02:28;97995.66;;;-1.08;100.00
3668;BME280;24099;47.102;15.440;2023-01-29T04:05:04;97994.91;;;-1.10;100.00
3668;BME280;24099;47.102;15.440;2023-01-29T04:07:46;97996.19;;;-1.17;100.00
3668;BME280;24099;47.102;15.440;2023-01-29T04:10:21;97995.50;;;-1.05;100.00
3668;BME280;24099;47.102;15.440;2023-01-29T04:12:55;97995.31;;;-1.02;100.00
3668;BME280;24099;47.102;15.440;2023-01-29T04:15:28;97991.44;;;-0.95;100.00
3668;BME280;24099;47.102;15.440;2023-01-29T04:17:57;97996.31;;;-1.05;100.00
3668;BME280;24099;47.102;15.440;2023-01-29T04:20:46;98001.84;;;-1.11;100.00
3668;BME280;24099;47.102;15.440;2023-01-29T04:23:23;98004.53;;;-0.98;100.00
3668;BME280;24099;47.102;15.440;2023-01-29T04:26:00;97995.84;;;-0.97;100.00
3668;BME280;24099;47.102;15.440;2023-01-29T04:28:49;98007.00;;;-1.11;100.00
3668;BME280;24099;47.102;15.440;2023-01-29T04:31:23;98005.78;;;-1.19;100.00
3668;BME280;24099;47.102;15.440;2023-01-29T04:34:06;98010.56;;;-1.27;100.00
3668;BME280;24099;47.102;15.440;2023-01-29T04:36:57;98005.69;;;-1.18;100.00
3668;BME280;24099;47.102;15.440;2023-01-29T04:39:33;98007.09;;;-1.12;100.00
3668;BME280;24099;47.102;15.440;2023-01-29T04:42:09;97999.44;;;-0.99;100.00
3668;BME280;24099;47.102;15.440;2023-01-29T04:44:46;98005.75;;;-0.89;100.00
3668;BME280;24099;47.102;15.440;2023-01-29T04:47:24;98003.16;;;-0.89;100.00
3668;BME280;24099;47.102;15.440;2023-01-29T04:50:02;97998.34;;;-1.10;100.00
3668;BME280;24099;47.102;15.440;2023-01-29T04:52:46;97996.94;;;-1.15;100.00
3668;BME280;24099;47.102;15.440;2023-01-29T04:55:28;97996.75;;;-1.12;100.00
3668;BME280;24099;47.102;15.440;2023-01-29T04:58:05;97998.25;;;-1.08;100.00
3668;BME280;24099;47.102;15.440;2023-01-29T05:00:38;97991.50;;;-0.96;100.00
3668;BME280;24099;47.102;15.440;2023-01-29T05:03:07;97991.69;;;-0.99;100.00
3668;BME280;24099;47.102;15.440;2023-01-29T05:05:39;97994.97;;;-1.26;100.00
3668;BME280;24099;47.102;15.440;2023-01-29T05:08:10;97996.19;;;-1.17;100.00
3668;BME280;24099;47.102;15.440;2023-01-29T05:10:45;98003.97;;;-1.03;100.00
3668;BME280;24099;47.102;15.440;2023-01-29T05:13:15;98003.81;;;-1.00;100.00
3668;BME280;24099;47.102;15.440;2023-01-29T05:15:49;97998.66;;;-1.00;100.00
3668;BME280;24099;47.102;15.440;2023-01-29T05:18:18;97989.22;;;-1.01;100.00
3668;BME280;24099;47.102;15.440;2023-01-29T05:20:47;97991.56;;;-1.26;100.00
3668;BME280;24099;47.102;15.440;2023-01-29T05:23:33;97995.75;;;-1.40;100.00
3668;BME280;24099;47.102;15.440;2023-01-29T05:26:01;97993.34;;;-1.13;100.00
3668;BME280;24099;47.102;15.440;2023-01-29T05:28:29;98003.81;;;-1.30;100.00
3668;BME280;24099;47.102;15.440;2023-01-29T05:30:56;98000.13;;;-1.40;100.00
3668;BME280;24099;47.102;15.440;2023-01-29T05:33:26;97994.97;;;-1.26;100.00
3668;BME280;24099;47.102;15.440;2023-01-29T05:35:55;98002.56;;;-1.23;100.00
3668;BME280;24099;47.102;15.440;2023-01-29T05:38:25;97994.91;;;-1.24;100.00
3668;BME280;24099;47.102;15.440;2023-01-29T05:40:54;97993.63;;;-1.47;100.00
3668;BME280;24099;47.102;15.440;2023-01-29T05:43:25;97988.97;;;-1.41;100.00
3668;BME280;24099;47.102;15.440;2023-01-29T05:45:53;97981.75;;;-1.35;100.00
3668;BME280;24099;47.102;15.440;2023-01-29T05:48:22;97984.72;;;-1.57;100.00
3668;BME280;24099;47.102;15.440;2023-01-29T05:50:50;97991.53;;;-1.41;100.00
3668;BME280;24099;47.102;15.440;2023-01-29T05:53:18;97993.50;;;-1.30;100.00
3668;BME280;24099;47.102;15.440;2023-01-29T05:55:47;97999.28;;;-1.41;100.00
3668;BME280;24099;47.102;15.440;2023-01-29T05:58:17;97998.47;;;-1.57;100.00
3668;BME280;24099;47.102;15.440;2023-01-29T06:01:15;98005.81;;;-1.35;100.00
3668;BME280;24099;47.102;15.440;2023-01-29T06:03:43;98004.00;;;-1.33;100.00
3668;BME280;24099;47.102;15.440;2023-01-29T06:06:17;98017.22;;;-1.23;100.00
3668;BME280;24099;47.102;15.440;2023-01-29T06:08:45;98012.41;;;-1.29;100.00
3668;BME280;24099;47.102;15.440;2023-01-29T06:11:14;98020.44;;;-1.50;100.00
3668;BME280;24099;47.102;15.440;2023-01-29T06:13:45;98013.97;;;-1.27;100.00
3668;BME280;24099;47.102;15.440;2023-01-29T06:16:15;98013.50;;;-1.19;100.00
3668;BME280;24099;47.102;15.440;2023-01-29T06:18:45;98018.88;;;-1.22;100.00
3668;BME280;24099;47.102;15.440;2023-01-29T06:21:13;98018.06;;;-1.23;100.00
3668;BME280;24099;47.102;15.440;2023-01-29T06:23:43;98023.06;;;-1.35;100.00
3668;BME280;24099;47.102;15.440;2023-01-29T06:26:18;98023.59;;;-1.45;100.00
3668;BME280;24099;47.102;15.440;2023-01-29T06:28:50;98030.31;;;-1.26;100.00
3668;BME280;24099;47.102;15.440;2023-01-29T06:31:20;98028.66;;;-1.13;100.00
3668;BME280;24099;47.102;15.440;2023-01-29T06:33:48;98026.91;;;-1.13;100.00
3668;BME280;24099;47.102;15.440;2023-01-29T06:36:15;98025.34;;;-1.15;100.00
3668;BME280;24099;47.102;15.440;2023-01-29T06:38:44;98027.91;;;-1.15;100.00
3668;BME280;24099;47.102;15.440;2023-01-29T06:41:14;98029.84;;;-1.19;100.00
3668;BME280;24099;47.102;15.440;2023-01-29T06:43:45;98025.72;;;-1.21;100.00
3668;BME280;24099;47.102;15.440;2023-01-29T06:46:15;98041.28;;;-1.23;100.00
3668;BME280;24099;47.102;15.440;2023-01-29T06:48:45;98038.09;;;-1.12;100.00
3668;BME280;24099;47.102;15.440;2023-01-29T06:51:14;98042.41;;;-1.13;100.00
3668;BME280;24099;47.102;15.440;2023-01-29T06:53:42;98045.78;;;-1.26;100.00
3668;BME280;24099;47.102;15.440;2023-01-29T06:56:10;98049.78;;;-1.21;100.00
3668;BME280;24099;47.102;15.440;2023-01-29T06:58:37;98050.50;;;-1.19;100.00
3668;BME280;24099;47.102;15.440;2023-01-29T07:01:06;98049.41;;;-1.15;100.00
3668;BME280;24099;47.102;15.440;2023-01-29T07:03:36;98051.06;;;-1.14;100.00
3668;BME280;24099;47.102;15.440;2023-01-29T07:06:04;98043.34;;;-1.14;100.00
3668;BME280;24099;47.102;15.440;2023-01-29T07:08:36;98039.66;;;-1.10;100.00
3668;BME280;24099;47.102;15.440;2023-01-29T07:11:04;98043.00;;;-1.08;100.00
3668;BME280;24099;47.102;15.440;2023-01-29T07:13:35;98039.75;;;-1.11;100.00
3668;BME280;24099;47.102;15.440;2023-01-29T07:16:04;98031.81;;;-1.08;100.00
3668;BME280;24099;47.102;15.440;2023-01-29T07:18:36;98017.81;;;-1.04;100.00
3668;BME280;24099;47.102;15.440;2023-01-29T07:21:06;98023.19;;;-0.93;100.00
3668;BME280;24099;47.102;15.440;2023-01-29T07:23:35;98014.94;;;-0.99;100.00
3668;BME280;24099;47.102;15.440;2023-01-29T07:26:03;98024.00;;;-1.07;100.00
3668;BME280;24099;47.102;15.440;2023-01-29T07:28:36;98019.00;;;-0.95;100.00
3668;BME280;24099;47.102;15.440;2023-01-29T07:31:04;98019.31;;;-1.00;100.00
3668;BME280;24099;47.102;15.440;2023-01-29T07:33:34;98020.03;;;-0.98;100.00
3668;BME280;24099;47.102;15.440;2023-01-29T07:36:05;98015.50;;;-0.94;100.00
3668;BME280;24099;47.102;15.440;2023-01-29T07:38:37;98010.25;;;-0.93;100.00
3668;BME280;24099;47.102;15.440;2023-01-29T07:41:07;98003.25;;;-0.91;100.00
3668;BME280;24099;47.102;15.440;2023-01-29T07:43:35;98011.75;;;-0.89;100.00
3668;BME280;24099;47.102;15.440;2023-01-29T07:46:06;98005.56;;;-0.86;100.00
3668;BME280;24099;47.102;15.440;2023-01-29T07:48:35;98001.25;;;-0.86;100.00
3668;BME280;24099;47.102;15.440;2023-01-29T07:51:08;97995.16;;;-0.85;100.00
3668;BME280;24099;47.102;15.440;2023-01-29T07:53:37;97996.81;;;-0.84;100.00
3668;BME280;24099;47.102;15.440;2023-01-29T07:56:09;97994.22;;;-0.84;100.00
3668;BME280;24099;47.102;15.440;2023-01-29T07:58:51;97986.19;;;-0.79;100.00
3668;BME280;24099;47.102;15.440;2023-01-29T08:01:20;97993.75;;;-0.76;100.00
3668;BME280;24099;47.102;15.440;2023-01-29T08:03:51;97993.94;;;-0.79;100.00
3668;BME280;24099;47.102;15.440;2023-01-29T08:06:18;97993.94;;;-0.79;100.00
3668;BME280;24099;47.102;15.440;2023-01-29T08:08:49;97995.69;;;-0.94;100.00
3668;BME280;24099;47.102;15.440;2023-01-29T08:11:17;97995.75;;;-0.95;100.00
3668;BME280;24099;47.102;15.440;2023-01-29T08:13:45;97995.50;;;-0.77;100.00
3668;BME280;24099;47.102;15.440;2023-01-29T08:16:14;97993.78;;;-0.62;100.00
3668;BME280;24099;47.102;15.440;2023-01-29T08:18:42;97981.31;;;-0.70;100.00
3668;BME280;24099;47.102;15.440;2023-01-29T08:21:16;97986.94;;;-0.63;100.00
3668;BME280;24099;47.102;15.440;2023-01-29T08:23:44;97988.53;;;-0.60;100.00
3668;BME280;24099;47.102;15.440;2023-01-29T08:26:11;97984.16;;;-0.60;100.00
3668;BME280;24099;47.102;15.440;2023-01-29T08:28:41;97987.75;;;-0.48;100.00
3668;BME280;24099;47.102;15.440;2023-01-29T08:31:13;97987.41;;;-0.42;100.00
3668;BME280;24099;47.102;15.440;2023-01-29T08:33:41;97978.06;;;-0.45;100.00
3668;BME280;24099;47.102;15.440;2023-01-29T08:36:10;97981.50;;;-0.44;100.00
3668;BME280;24099;47.102;15.440;2023-01-29T08:38:40;97987.19;;;-0.39;100.00
3668;BME280;24099;47.102;15.440;2023-01-29T08:41:13;97987.09;;;-0.38;100.00
3668;BME280;24099;47.102;15.440;2023-01-29T08:43:43;97985.34;;;-0.37;100.00
3668;BME280;24099;47.102;15.440;2023-01-29T08:46:14;97979.06;;;-0.33;100.00
3668;BME280;24099;47.102;15.440;2023-01-29T08:48:42;97989.31;;;-0.31;100.00
3668;BME280;24099;47.102;15.440;2023-01-29T08:51:12;97989.03;;;-0.27;100.00
3668;BME280;24099;47.102;15.440;2023-01-29T08:53:58;97982.66;;;-0.21;100.00
3668;BME280;24099;47.102;15.440;2023-01-29T08:56:26;97991.59;;;-0.13;100.00
3668;BME280;24099;47.102;15.440;2023-01-29T08:58:54;97979.59;;;-0.14;100.00
3668;BME280;24099;47.102;15.440;2023-01-29T09:01:24;97987.09;;;-0.23;100.00
3668;BME280;24099;47.102;15.440;2023-01-29T09:03:54;97989.50;;;0.07;100.00
3668;BME280;24099;47.102;15.440;2023-01-29T09:06:23;97987.28;;;0.15;100.00
3668;BME280;24099;47.102;15.440;2023-01-29T09:08:52;97983.44;;;0.20;100.00
3668;BME280;24099;47.102;15.440;2023-01-29T09:11:22;97984.78;;;0.13;100.00
3668;BME280;24099;47.102;15.440;2023-01-29T09:13:50;97979.91;;;0.09;100.00
3668;BME280;24099;47.102;15.440;2023-01-29T09:16:18;97986.78;;;-0.05;100.00
3668;BME280;24099;47.102;15.440;2023-01-29T09:18:46;97992.84;;;0.09;100.00
3668;BME280;24099;47.102;15.440;2023-01-29T09:21:14;97989.59;;;0.05;100.00
3668;BME280;24099;47.102;15.440;2023-01-29T09:23:51;97986.94;;;0.07;100.00
3668;BME280;24099;47.102;15.440;2023-01-29T09:26:21;97995.13;;;0.13;100.00
3668;BME280;24099;47.102;15.440;2023-01-29T09:28:50;97990.00;;;0.26;100.00
3668;BME280;24099;47.102;15.440;2023-01-29T09:31:17;97977.72;;;0.42;100.00
3668;BME280;24099;47.102;15.440;2023-01-29T09:33:45;97990.63;;;0.56;100.00
3668;BME280;24099;47.102;15.440;2023-01-29T09:36:14;97993.19;;;1.21;100.00
3668;BME280;24099;47.102;15.440;2023-01-29T09:38:42;97981.28;;;1.19;100.00
3668;BME280;24099;47.102;15.440;2023-01-29T09:41:29;97974.13;;;1.10;100.00
3668;BME280;24099;47.102;15.440;2023-01-29T09:44:05;97976.63;;;0.98;100.00
3668;BME280;24099;47.102;15.440;2023-01-29T09:46:40;97974.94;;;0.85;100.00
3668;BME280;24099;47.102;15.440;2023-01-29T09:49:11;97972.88;;;0.77;100.00
3668;BME280;24099;47.102;15.440;2023-01-29T09:51:45;97965.16;;;0.63;100.00
3668;BME280;24099;47.102;15.440;2023-01-29T09:54:20;97967.78;;;0.88;100.00
3668;BME280;24099;47.102;15.440;2023-01-29T09:56:54;97967.09;;;0.99;100.00
3668;BME280;24099;47.102;15.440;2023-01-29T09:59:28;97961.16;;;0.32;100.00
3668;BME280;24099;47.102;15.440;2023-01-29T10:02:05;97964.53;;;0.59;100.00
3668;BME280;24099;47.102;15.440;2023-01-29T10:07:52;97961.13;;;0.84;100.00
3668;BME280;24099;47.102;15.440;2023-01-29T10:10:41;97951.69;;;0.58;100.00
3668;BME280;24099;47.102;15.440;2023-01-29T10:13:21;97959.88;;;0.25;100.00
3668;BME280;24099;47.102;15.440;2023-01-29T10:16:15;97952.75;;;0.28;100.00
3668;BME280;24099;47.102;15.440;2023-01-29T10:19:00;97949.00;;;0.59;100.00
3668;BME280;24099;47.102;15.440;2023-01-29T10:22:06;97944.03;;;0.56;100.00
3668;BME280;24099;47.102;15.440;2023-01-29T10:24:53;97940.94;;;0.89;100.00
3668;BME280;24099;47.102;15.440;2023-01-29T10:27:31;97934.94;;;0.76;100.00
3668;BME280;24099;47.102;15.440;2023-01-29T10:30:07;97932.28;;;0.51;100.00
3668;BME280;24099;47.102;15.440;2023-01-29T10:32:37;97939.47;;;0.60;100.00
3668;BME280;24099;47.102;15.440;2023-01-29T10:35:22;97939.69;;;0.82;100.00
3668;BME280;24099;47.102;15.440;2023-01-29T10:37:53;97929.16;;;0.98;100.00
3668;BME280;24099;47.102;15.440;2023-01-29T10:40:22;97928.22;;;0.99;100.00
3668;BME280;24099;47.102;15.440;2023-01-29T10:42:59;97932.34;;;0.89;100.00
3668;BME280;24099;47.102;15.440;2023-01-29T10:45:38;97928.22;;;0.99;100.00
3668;BME280;24099;47.102;15.440;2023-01-29T10:48:36;97934.53;;;0.95;100.00
3668;BME280;24099;47.102;15.440;2023-01-29T10:51:32;97929.13;;;1.11;100.00
3668;BME280;24099;47.102;15.440;2023-01-29T10:54:28;97934.00;;;1.02;100.00
3668;BME280;24099;47.102;15.440;2023-01-29T10:57:08;97924.78;;;1.11;100.00
3668;BME280;24099;47.102;15.440;2023-01-29T10:59:55;97916.88;;;1.25;100.00
3668;BME280;24099;47.102;15.440;2023-01-29T11:02:28;97914.91;;;1.03;100.00
3668;BME280;24099;47.102;15.440;2023-01-29T11:04:55;97913.06;;;0.93;100.00
3668;BME280;24099;47.102;15.440;2023-01-29T11:07:26;97914.41;;;0.98;100.00
3668;BME280;24099;47.102;15.440;2023-01-29T11:10:09;97901.44;;;1.11;100.00
3668;BME280;24099;47.102;15.440;2023-01-29T11:12:40;97894.06;;;1.30;100.00
3668;BME280;24099;47.102;15.440;2023-01-29T11:15:17;97891.41;;;1.56;100.00
3668;BME280;24099;47.102;15.440;2023-01-29T11:18:04;97889.06;;;1.27;100.00
3668;BME280;24099;47.102;15.440;2023-01-29T11:20:34;97889.66;;;1.44;100.00
3668;BME280;24099;47.102;15.440;2023-01-29T11:23:02;97898.38;;;1.43;100.00
3668;BME280;24099;47.102;15.440;2023-01-29T11:25:30;97894.31;;;1.51;100.00
3668;BME280;24099;47.102;15.440;2023-01-29T11:28:00;97892.78;;;1.49;100.00
3668;BME280;24099;47.102;15.440;2023-01-29T11:30:32;97881.03;;;1.56;100.00
3668;BME280;24099;47.102;15.440;2023-01-29T11:33:09;97875.69;;;1.33;100.00
3668;BME280;24099;47.102;15.440;2023-01-29T11:35:39;97872.94;;;1.48;100.00
3668;BME280;24099;47.102;15.440;2023-01-29T11:38:18;97873.47;;;1.53;100.00
3668;BME280;24099;47.102;15.440;2023-01-29T11:40:50;97870.44;;;1.59;100.00
3668;BME280;24099;47.102;15.440;2023-01-29T11:43:28;97869.00;;;1.55;100.00
3668;BME280;24099;47.102;15.440;2023-01-29T11:45:59;97867.59;;;1.62;100.00
3668;BME280;24099;47.102;15.440;2023-01-29T11:48:39;97859.41;;;1.68;100.00
3668;BME280;24099;47.102;15.440;2023-01-29T11:51:11;97852.22;;;1.71;100.00
3668;BME280;24099;47.102;15.440;2023-01-29T11:53:51;97841.53;;;1.76;100.00
3668;BME280;24099;47.102;15.440;2023-01-29T11:56:23;97840.63;;;1.64;100.00
3668;BME280;24099;47.102;15.440;2023-01-29T11:58:57;97828.22;;;1.57;100.00
3668;BME280;24099;47.102;15.440;2023-01-29T12:01:31;97827.41;;;1.44;100.00
3668;BME280;24099;47.102;15.440;2023-01-29T12:04:02;97824.94;;;1.66;100.00
3668;BME280;24099;47.102;15.440;2023-01-29T12:06:34;97833.25;;;1.71;100.00
3668;BME280;24099;47.102;15.440;2023-01-29T12:09:09;97835.88;;;1.22;100.00
3668;BME280;24099;47.102;15.440;2023-01-29T12:11:38;97837.56;;;1.59;100.00
3668;BME280;24099;47.102;15.440;2023-01-29T12:14:27;97837.09;;;1.65;100.00
3668;BME280;24099;47.102;15.440;2023-01-29T12:17:01;97837.75;;;1.56;100.00
3668;BME280;24099;47.102;15.440;2023-01-29T12:19:37;97844.78;;;1.67;100.00
3668;BME280;24099;47.102;15.440;2023-01-29T12:22:14;97838.84;;;1.89;100.00
3668;BME280;24099;47.102;15.440;2023-01-29T12:24:56;97831.53;;;1.59;100.00
3668;BME280;24099;47.102;15.440;2023-01-29T12:27:29;97831.13;;;1.52;100.00
3668;BME280;24099;47.102;15.440;2023-01-29T12:30:03;97819.59;;;1.32;100.00
3668;BME280;24099;47.102;15.440;2023-01-29T12:32:36;97825.13;;;1.52;100.00
3668;BME280;24099;47.102;15.440;2023-01-29T12:35:16;97834.34;;;1.56;100.00
3668;BME280;24099;47.102;15.440;2023-01-29T12:37:53;97841.31;;;1.43;100.00
3668;BME280;24099;47.102;15.440;2023-01-29T12:40:28;97827.25;;;1.34;100.00
3668;BME280;24099;47.102;15.440;2023-01-29T12:43:10;97825.75;;;1.43;100.00
3668;BME280;24099;47.102;15.440;2023-01-29T12:45:41;97809.81;;;1.36;100.00
3668;BME280;24099;47.102;15.440;2023-01-29T12:48:18;97808.22;;;1.46;100.00
3668;BME280;24099;47.102;15.440;2023-01-29T12:50:50;97802.66;;;1.40;100.00
3668;BME280;24099;47.102;15.440;2023-01-29T12:53:24;97799.59;;;1.46;100.00
3668;BME280;24099;47.102;15.440;2023-01-29T12:55:58;97793.66;;;1.56;100.00
3668;BME280;24099;47.102;15.440;2023-01-29T12:58:36;97794.16;;;1.61;100.00
3668;BME280;24099;47.102;15.440;2023-01-29T13:01:13;97786.13;;;1.64;100.00
3668;BME280;24099;47.102;15.440;2023-01-29T13:03:48;97784.38;;;1.65;100.00
3668;BME280;24099;47.102;15.440;2023-01-29T13:06:22;97782.91;;;1.50;100.00
3668;BME280;24099;47.102;15.440;2023-01-29T13:08:55;97778.53;;;1.50;100.00
3668;BME280;24099;47.102;15.440;2023-01-29T13:11:28;97785.38;;;1.51;100.00
3668;BME280;24099;47.102;15.440;2023-01-29T13:14:03;97781.75;;;1.54;100.00
3668;BME280;24099;47.102;15.440;2023-01-29T13:16:37;97780.53;;;1.47;100.00
3668;BME280;24099;47.102;15.440;2023-01-29T13:19:17;97774.19;;;1.51;100.00
3668;BME280;24099;47.102;15.440;2023-01-29T13:21:50;97769.88;;;1.38;100.00
3668;BME280;24099;47.102;15.440;2023-01-29T13:24:24;97781.25;;;1.49;100.00
3668;BME280;24099;47.102;15.440;2023-01-29T13:26:54;97772.03;;;1.45;100.00
3668;BME280;24099;47.102;15.440;2023-01-29T13:29:25;97771.97;;;1.33;100.00
3668;BME280;24099;47.102;15.440;2023-01-29T13:31:55;97769.59;;;1.30;100.00